Terminal Aerodrome Forecast
Issued by NWS

Current Version | Previous Version | Text Only | Print | Product List | Glossary On
Versions: 1 2 3 4 5 6 7 8 9 10 11 12
037
FTAK31 PAJN 052327
TAFASI
TAF
PASI 052327Z 0600/0624 12006KT P6SM VCSH BKN040 BKN070
     FM060200 14007KT P6SM -SHRA BKN040 OVC060
     FM061000 18010KT P6SM VCSH SCT050 BKN070
     FM061500 14007KT P6SM SCT070 BKN100=

USA.gov is the U.S. government's official web portal to all federal, state and local government web resources and services.